עמוד ראשי
METAR-TAF:

METAR-TAF

שדות תעופה :

שטוטגרט, גרמניה

נמל התעופה שטוטגרט

קו רוחב: 48-41N, קו אורך: 009-13E, גובה: 396מטר

תצפית מזג אוויר נוכחית

הדו"ח נערך לפני 35דקות, בשעה 15:50 UTC
רוח 6קשר מכיוון מערב
טמפרטורת 2 צלסיוס
לחות 87%
לחץ 1013 hPa
ראות 10 קילומטר או יותר
עננים בינוניים בגובה 1600רגל , קומולוס מיגדלי.
עננים בינוניים בגובה 4000רגל
ממטרי שלג קלים, גשם

METAR: EDDS 161550Z 26006KT 9999 -SHSNRA BKN016TCU BKN040 02/00 Q1013 NOSIG

זמן: 17:25 (16:25 UTC)

תחזית

הדו"ח נערך לפני 5 שעות ו 25דקות, בשעה 11:00 UTC
תחזית בתוקף מ 16 ב 12 UTC עד 17 ב 12 UTC
רוח 7קשר מכיוון מערב/צפון-מערב
ראות: 9000מטר
עננים פזורים בגובה 2000רגל
עננים בינוניים בגובה 3000רגל
הסתברות 40% :
זמנית מ -
16 ב 12 UTC עד 17 ב 08 UTC
ראות: 1500מטר
עננים בינוניים בגובה 500רגל
עננים בינוניים בגובה 1200רגל , קומולוס מיגדלי.
ממטרי שלג

TAF: EDDS 161100Z 1612/1712 30007KT 9000 SCT020 BKN030 PROB40 TEMPO 1612/1708 1500 SHSN BKN005 BKN012TCU

תצפיות ותחזיות מזג אוויר לגבי יותר מ- 4,000 שדות תעופה ברחבי העולם. דוחות METAR ו- TAF.

התחנות הזמינות מסומנות בנקודות צהובות ואדומות על גבי המפה.

העבר את העכבר לנקודה הצבעונית על מנת לראות את שם התחנה.

לאחר מכן, לחץ כדי לראות את תוכן ואת תחזיות מזג האוויר.

כדי לשנות את המפה: לחץ על הכפתורים הירוקים עם הפלוס השחור כדי להתקרב; על הכפתור הירוק עם המקף כדי להתרחק; או בחיצים הירוקים למפות סמוכות.


METAR-TAF: